• Join FlightAware (Why Join?)
  • Login
  • US Flag 
02:23AM EDT


 

Airport Tracker/Info


-or-


 

Live Flight TrackerFlight Track Log ✈ N5FG ✈ 07-Oct-2013 ✈ KASX - KUGN

Flight Track Log - Related Links

Times and Time Zones

All times are in EDT time to prevent confusion due to time zone crossing. See the N5FG flight status page for this flight to view local times or setup timezone preferences in your user account.

Time Position Orientation Groundspeed Altitude Reporting Facility
EDT Latitude Longitude Course Direction KTS MPH feet Rate Location/Type
03:19PM 46.4714 -90.8425 151° Southeast 167 192 5,000  Level Minneapolis Center
03:20PM 46.4239 -90.8036 151° Southeast 163 188 6,100 900 Climbing Minneapolis Center
03:21PM 46.3878 -90.7669 145° Southeast 161 185 6,900 780 Climbing Minneapolis Center
03:22PM 46.3494 -90.7272 144° Southeast 165 190 7,800 780 Climbing Minneapolis Center
03:23PM 46.3064 -90.6889 148° Southeast 171 197 8,600 600 Climbing Minneapolis Center
03:24PM 46.2631 -90.6483 147° Southeast 179 206 9,100 240 Climbing Minneapolis Center
03:25PM 46.2571 -90.6865 151° Southeast  Level Estimated
03:25PM 46.2150 -90.6031 147° Southeast 190 219 9,100  Level Minneapolis Center
03:26PM 46.1653 -90.5564 147° Southeast 202 232 9,100  Level Minneapolis Center
03:28PM 46.1061 -90.5008 147° Southeast 209 241 9,100  Level Minneapolis Center
03:29PM 46.0558 -90.4550 148° Southeast 211 243 9,100  Level Minneapolis Center
03:30PM 46.0075 -90.4089 146° Southeast 212 244 9,100  Level Minneapolis Center
03:31PM 45.9561 -90.3614 147° Southeast 214 246 9,100  Level Minneapolis Center
03:32PM 45.9075 -90.3147 146° Southeast 213 245 9,100  Level Minneapolis Center
03:33PM 45.8578 -90.2706 148° Southeast 213 245 9,100  Level Minneapolis Center
03:34PM 45.7975 -90.2147 147° Southeast 213 245 9,100  Level Minneapolis Center
03:35PM 45.7475 -90.1697 148° Southeast 213 245 9,100  Level Minneapolis Center
03:36PM 45.6983 -90.1233 147° Southeast 213 245 9,100  Level Minneapolis Center
03:37PM 45.6481 -90.0778 148° Southeast 213 245 9,100  Level Minneapolis Center
03:38PM 45.5989 -90.0331 148° Southeast 212 244 9,100  Level Minneapolis Center
03:39PM 45.5508 -89.9886 147° Southeast 210 242 9,100  Level Minneapolis Center
03:40PM 45.5014 -89.9436 147° Southeast 210 242 9,100  Level Minneapolis Center
03:41PM 45.4414 -89.8883 147° Southeast 212 244 9,100  Level Minneapolis Center
03:42PM 45.3922 -89.8433 147° Southeast 212 244 9,100  Level Minneapolis Center
03:43PM 45.3422 -89.7994 148° Southeast 212 244 9,100  Level Minneapolis Center
03:44PM 45.2936 -89.7533 146° Southeast 211 243 9,100  Level Minneapolis Center
03:45PM 45.2447 -89.7086 147° Southeast 210 242 9,100  Level Minneapolis Center
03:46PM 45.1950 -89.6661 149° Southeast 210 242 9,100  Level Minneapolis Center
03:47PM 45.1364 -89.6111 146° Southeast 210 242 9,100  Level Minneapolis Center
03:48PM 45.0875 -89.5667 147° Southeast 210 242 9,100  Level Minneapolis Center
03:49PM 45.0361 -89.5242 150° Southeast 210 242 9,100  Level Minneapolis Center
03:50PM 44.9839 -89.4806 149° Southeast 210 242 9,100  Level Minneapolis Center
03:51PM 44.9333 -89.4325 146° Southeast 209 241 9,100  Level Minneapolis Center
03:52PM 44.8822 -89.3875 148° Southeast 209 241 9,100  Level Minneapolis Center
03:53PM 44.8347 -89.3417 146° Southeast 209 241 9,100  Level Minneapolis Center
03:54PM 44.7839 -89.2989 149° Southeast 209 241 9,100  Level Minneapolis Center
03:55PM 44.7331 -89.2542 148° Southeast 207 238 9,100  Level Minneapolis Center
03:56PM 44.6808 -89.2086 148° Southeast 211 243 9,100  Level Minneapolis Center
03:57PM 44.6344 -89.1669 147° Southeast 207 238 9,100  Level Minneapolis Center
03:58PM 44.5833 -89.1228 148° Southeast 208 239 9,100  Level Minneapolis Center
03:59PM 44.5328 -89.0778 148° Southeast 206 237 9,100 -60 Level Minneapolis Center
04:01PM 44.4825 -89.0336 148° Southeast 206 237 9,000 -60 Descending Minneapolis Center
04:02PM 44.4342 -88.9872 146° Southeast 209 241 9,000  Level Minneapolis Center
04:03PM 44.3858 -88.9461 149° Southeast 206 237 9,100  Climbing Minneapolis Center
04:04PM 44.3364 -88.9025 148° Southeast 208 239 9,100  Level Minneapolis Center
04:05PM 44.2864 -88.8617 150° Southeast 209 241 9,100  Level Minneapolis Center
04:06PM 44.2283 -88.8103 148° Southeast 208 239 9,100  Level Minneapolis Center
04:07PM 44.1792 -88.7669 148° Southeast 209 241 9,100  Level Minneapolis Center
04:08PM 44.1308 -88.7233 147° Southeast 208 239 9,100  Level Minneapolis Center
04:08PM 44.1014 -88.7006 151° Southeast 208 239 9,100  Level Chicago Center
04:09PM 44.0425 -88.6506 149° Southeast 207 238 9,100  Level Chicago Center
04:11PM 43.9933 -88.6092 149° Southeast 207 238 9,100  Level Chicago Center
04:12PM 43.9447 -88.5658 147° Southeast 207 238 9,100  Level Chicago Center
04:13PM 43.8950 -88.5247 149° Southeast 208 239 9,100  Level Chicago Center
04:14PM 43.8456 -88.4828 149° Southeast 208 239 9,100  Level Chicago Center
04:15PM 43.7958 -88.4406 148° Southeast 209 241 9,100  Level Chicago Center
04:16PM 43.7356 -88.3892 148° Southeast 210 242 9,100  Level Chicago Center
04:17PM 43.6850 -88.3458 148° Southeast 212 244 9,100  Level Chicago Center
04:18PM 43.6347 -88.3025 148° Southeast 213 245 9,100  Level Chicago Center
04:19PM 43.5831 -88.2600 149° Southeast 215 247 9,100  Level Chicago Center
04:20PM 43.5322 -88.2178 149° Southeast 212 244 9,100  Level Chicago Center
04:21PM 43.4792 -88.1853 156° South 208 239 9,100  Level Chicago Center
04:22PM 43.4222 -88.1733 171° South 206 237 9,100 -120 Level Chicago Center
04:23PM 43.3536 -88.1511 167° South 209 241 8,900 -360 Descending Chicago Center
04:24PM 43.2958 -88.1328 167° South 214 246 8,400 -660 Descending Chicago Center
04:25PM 43.2358 -88.1139 167° South 218 251 7,600 -660 Descending Chicago Center
04:26PM 43.1758 -88.0964 168° South 220 253 7,100 -600 Descending Chicago Center
04:27PM 43.1167 -88.0769 167° South 219 252 6,400 -540 Descending Chicago Center
04:28PM 43.0608 -88.0600 167° South 211 243 6,000 -180 Descending Chicago Center
04:29PM 43.0089 -88.0450 168° South 197 227 6,100  Climbing Chicago Center
04:30PM 42.9483 -88.0281 168° South 189 217 6,100 -60 Level Chicago Center
04:31PM 42.8975 -88.0117 167° South 186 214 6,000 -60 Descending Chicago Center
04:32PM 42.8461 -87.9944 166° South 189 217 6,000 -300 Level Chicago Center
04:33PM 42.7939 -87.9806 169° South 191 220 5,400 -660 Descending Chicago Center
04:34PM 42.7408 -87.9653 168° South 194 223 4,700 -660 Descending Chicago Center
04:35PM 42.6897 -87.9489 167° South 192 221 4,100 -360 Descending Chicago Center
04:36PM 42.6347 -87.9264 163° South 182 209 4,000 -60 Descending Chicago Center
04:37PM 42.5950 -87.8989 153° Southeast 167 192 4,000 -60 Level Chicago Center
04:38PM 42.5544 -87.8767 158° South 159 183 3,900 -540 Descending Chicago Center
04:39PM 42.5094 -87.8553 161° South 165 190 3,000 -900 Descending Chicago Center
04:43PM 42.4193 -87.8667 180° South  Level FlightAware Approximate